createdAt,value
2019-01-20T00:01:17.646Z,27.03
2019-01-20T00:03:48.140Z,25.37
2019-01-20T00:06:18.400Z,23.80
2019-01-20T00:08:48.650Z,25.73
2019-01-20T00:11:19.065Z,23.73
2019-01-20T00:13:49.357Z,24.50
2019-01-20T00:16:19.765Z,28.37
2019-01-20T00:18:50.105Z,22.63
2019-01-20T00:21:20.416Z,28.03
2019-01-20T00:23:50.744Z,22.97
2019-01-20T00:26:21.304Z,25.67
2019-01-20T00:28:51.815Z,29.77
2019-01-20T00:31:22.421Z,23.70
2019-01-20T00:33:53.000Z,27.47
2019-01-20T00:36:23.329Z,22.90
2019-01-20T00:38:53.596Z,30.13
2019-01-20T00:41:24.559Z,31.93
2019-01-20T00:43:54.918Z,24.17
2019-01-20T00:46:25.501Z,24.90
2019-01-20T00:48:55.862Z,25.37
2019-01-20T00:51:26.737Z,28.77
2019-01-20T00:53:57.102Z,28.03
2019-01-20T00:56:27.638Z,25.80
2019-01-20T00:58:57.994Z,25.48
2019-01-20T01:01:28.724Z,26.90
2019-01-20T01:03:59.985Z,26.33
2019-01-20T01:06:30.248Z,25.80
2019-01-20T01:09:00.844Z,28.73
2019-01-20T01:11:31.779Z,30.07
2019-01-20T01:14:02.625Z,24.73
2019-01-20T01:16:32.979Z,25.57
2019-01-20T01:19:03.374Z,30.33
2019-01-20T01:21:33.632Z,27.37
2019-01-20T01:24:04.167Z,25.40
2019-01-20T01:26:34.592Z,29.40
2019-01-20T01:29:04.892Z,28.10
2019-01-20T01:31:35.749Z,26.10
2019-01-20T01:34:06.027Z,26.10
2019-01-20T01:36:36.345Z,24.73
2019-01-20T01:39:09.782Z,25.30
2019-01-20T01:41:40.060Z,26.93
2019-01-20T01:44:10.340Z,24.50
2019-01-20T01:46:40.749Z,23.83
2019-01-20T01:49:10.984Z,28.03
2019-01-20T01:51:41.278Z,29.63
2019-01-20T01:54:11.580Z,24.60
2019-01-20T01:56:42.788Z,24.57
2019-01-20T01:59:13.087Z,26.70
2019-01-20T02:01:43.901Z,26.30
2019-01-20T02:04:14.383Z,31.80
2019-01-20T02:06:44.638Z,25.27
2019-01-20T02:09:15.318Z,26.97
2019-01-20T02:11:46.934Z,24.33
2019-01-20T02:14:17.614Z,28.87
2019-01-20T02:16:48.001Z,28.13
2019-01-20T02:19:18.345Z,25.87
2019-01-20T02:21:48.643Z,29.87
2019-01-20T02:24:18.972Z,32.40
2019-01-20T02:26:49.248Z,30.57
2019-01-20T02:29:19.559Z,33.23
2019-01-20T02:31:50.015Z,28.80
2019-01-20T02:34:20.269Z,26.30
2019-01-20T02:36:50.534Z,28.77
2019-01-20T02:39:20.896Z,33.07
2019-01-20T02:41:55.317Z,31.50
2019-01-20T02:44:23.490Z,26.02
2019-01-20T02:46:53.851Z,25.00
2019-01-20T02:49:24.113Z,30.50
2019-01-20T02:51:54.427Z,30.80
2019-01-20T02:54:25.004Z,25.97
2019-01-20T02:56:55.295Z,27.87
2019-01-20T02:59:25.554Z,31.75
2019-01-20T03:01:56.099Z,27.73
2019-01-20T03:04:26.400Z,27.87
2019-01-20T03:06:56.661Z,31.10
2019-01-20T03:09:27.103Z,26.03
2019-01-20T03:12:03.468Z,26.03
2019-01-20T03:14:29.450Z,29.20
2019-01-20T03:16:59.833Z,27.40
2019-01-20T03:19:30.690Z,33.47
2019-01-20T03:22:00.968Z,31.77
2019-01-20T03:24:31.567Z,27.50
2019-01-20T03:27:01.805Z,24.47
2019-01-20T03:29:32.407Z,30.20
2019-01-20T03:32:02.938Z,30.08
2019-01-20T03:34:33.469Z,26.80
2019-01-20T03:37:03.739Z,30.97
2019-01-20T03:39:34.049Z,32.83
2019-01-20T03:42:11.890Z,31.43
2019-01-20T03:44:37.700Z,33.20
2019-01-20T03:47:08.031Z,29.53
2019-01-20T03:49:38.255Z,30.27
2019-01-20T03:52:08.515Z,34.07
2019-01-20T03:54:38.845Z,31.48
2019-01-20T03:57:09.131Z,33.80
2019-01-20T03:59:39.760Z,30.87
2019-01-20T04:02:10.126Z,30.05
2019-01-20T04:04:40.358Z,30.15
2019-01-20T04:07:10.645Z,29.95
2019-01-20T04:09:41.039Z,30.13
2019-01-20T04:12:11.211Z,31.85
2019-01-20T04:14:41.453Z,29.90
2019-01-20T04:17:11.793Z,32.70
2019-01-20T04:19:42.024Z,29.10
2019-01-20T04:22:12.321Z,28.25
2019-01-20T04:24:42.632Z,28.17
2019-01-20T04:27:12.816Z,31.87
2019-01-20T04:29:43.333Z,33.73
2019-01-20T04:32:13.585Z,35.43
2019-01-20T04:34:44.098Z,31.80
2019-01-20T04:37:14.380Z,31.07
2019-01-20T04:39:44.679Z,33.23
2019-01-20T04:42:14.949Z,35.97
2019-01-20T04:44:45.240Z,29.50
2019-01-20T04:47:16.117Z,32.27
2019-01-20T04:49:46.366Z,31.60
2019-01-20T04:52:16.594Z,37.70
2019-01-20T04:54:46.939Z,33.23
2019-01-20T04:57:20.559Z,31.63
2019-01-20T04:59:50.800Z,30.95
2019-01-20T05:02:21.136Z,30.60
2019-01-20T05:04:51.410Z,31.93
2019-01-20T05:07:21.691Z,33.13
2019-01-20T05:09:52.268Z,35.60
2019-01-20T05:12:22.833Z,31.27
2019-01-20T05:14:53.085Z,35.25
2019-01-20T05:17:23.512Z,30.67
2019-01-20T05:19:53.755Z,32.40
2019-01-20T05:22:24.144Z,32.03
2019-01-20T05:24:54.631Z,32.30
2019-01-20T05:27:25.276Z,32.27
2019-01-20T05:29:55.625Z,32.77
2019-01-20T05:32:25.934Z,34.90
2019-01-20T05:34:57.051Z,40.50
2019-01-20T05:37:27.531Z,33.63
2019-01-20T05:39:58.043Z,33.20
2019-01-20T05:42:28.397Z,34.30
2019-01-20T05:44:58.696Z,32.10
2019-01-20T05:47:29.382Z,37.80
2019-01-20T05:49:59.655Z,32.80
2019-01-20T05:52:29.942Z,32.90
2019-01-20T05:55:00.266Z,31.60
2019-01-20T05:57:30.667Z,31.05
2019-01-20T06:00:01.136Z,35.77
2019-01-20T06:02:31.392Z,37.00
2019-01-20T06:05:01.950Z,36.20
2019-01-20T06:07:32.383Z,32.17
2019-01-20T06:10:02.690Z,39.60
2019-01-20T06:12:32.992Z,35.50
2019-01-20T06:15:03.426Z,36.87
2019-01-20T06:17:33.660Z,37.60
2019-01-20T06:20:04.028Z,44.70
2019-01-20T06:22:34.355Z,37.03
2019-01-20T06:25:05.281Z,37.53
2019-01-20T06:27:35.603Z,35.23
2019-01-20T06:30:10.596Z,45.98
2019-01-20T06:32:40.897Z,42.47
2019-01-20T06:35:11.399Z,43.47
2019-01-20T06:37:41.856Z,46.23
2019-01-20T06:40:12.336Z,43.57
2019-01-20T06:42:42.632Z,44.20
2019-01-20T06:45:13.087Z,48.47
2019-01-20T06:47:43.370Z,55.33
2019-01-20T06:50:18.689Z,46.90
2019-01-20T06:52:49.044Z,53.00
2019-01-20T06:55:19.327Z,45.07
2019-01-20T06:57:49.945Z,53.53
2019-01-20T07:00:22.709Z,58.23
2019-01-20T07:02:53.076Z,55.73
2019-01-20T07:05:23.608Z,51.73
2019-01-20T07:07:54.107Z,57.27
2019-01-20T07:10:24.374Z,52.67
2019-01-20T07:12:54.603Z,49.73
2019-01-20T07:15:25.939Z,49.97
2019-01-20T07:17:56.216Z,47.60
2019-01-20T07:20:27.397Z,48.13
2019-01-20T07:22:57.724Z,41.00
2019-01-20T07:25:28.089Z,41.80
2019-01-20T07:27:58.423Z,38.47
2019-01-20T07:30:28.753Z,32.10
2019-01-20T07:32:59.062Z,37.10
2019-01-20T07:35:29.291Z,31.80
2019-01-20T07:37:59.634Z,35.93
2019-01-20T07:40:29.907Z,32.07
2019-01-20T07:43:00.166Z,33.63
2019-01-20T07:45:30.511Z,33.17
2019-01-20T07:48:00.866Z,28.53
2019-01-20T07:50:31.545Z,33.40
2019-01-20T07:53:01.889Z,33.37
2019-01-20T07:55:32.263Z,36.90
2019-01-20T07:58:02.524Z,36.37
2019-01-20T08:00:32.875Z,35.67
2019-01-20T08:03:03.197Z,37.90
2019-01-20T08:05:33.499Z,44.00
2019-01-20T08:08:03.808Z,48.67
2019-01-20T08:10:34.125Z,43.10
2019-01-20T08:13:04.840Z,41.73
2019-01-20T08:15:35.202Z,40.80
2019-01-20T08:18:05.669Z,45.33
2019-01-20T08:20:35.949Z,44.73
2019-01-20T08:23:06.280Z,42.83
2019-01-20T08:25:36.665Z,43.50
2019-01-20T08:28:06.929Z,47.97
2019-01-20T08:30:37.228Z,54.80
2019-01-20T08:33:07.547Z,46.83
2019-01-20T08:35:37.819Z,49.42
2019-01-20T08:38:08.113Z,43.20
2019-01-20T08:40:38.423Z,41.03
2019-01-20T08:43:08.702Z,43.13
2019-01-20T08:46:47.310Z,42.43
2019-01-20T08:49:17.770Z,45.33
2019-01-20T08:51:48.068Z,45.73
2019-01-20T08:54:18.353Z,48.60
2019-01-20T08:56:48.632Z,47.13
2019-01-20T08:59:18.914Z,46.64
2019-01-20T09:01:49.164Z,43.80
2019-01-20T09:04:19.489Z,45.45
2019-01-20T09:06:49.810Z,46.33
2019-01-20T09:09:20.084Z,40.30
2019-01-20T09:11:50.338Z,43.13
2019-01-20T09:14:20.664Z,43.97
2019-01-20T09:16:50.983Z,41.20
2019-01-20T09:19:21.547Z,42.47
2019-01-20T09:21:52.011Z,44.73
2019-01-20T09:24:22.262Z,48.73
2019-01-20T09:26:52.683Z,43.53
2019-01-20T09:29:22.987Z,39.37
2019-01-20T09:31:53.257Z,42.77
2019-01-20T09:34:23.552Z,48.10
2019-01-20T09:36:53.875Z,44.75
2019-01-20T09:39:24.423Z,44.47
2019-01-20T09:41:54.990Z,46.97
2019-01-20T09:44:25.355Z,43.57
2019-01-20T09:46:55.668Z,46.60
2019-01-20T09:49:25.965Z,47.83
2019-01-20T09:51:56.536Z,41.98
2019-01-20T09:54:26.798Z,50.47
2019-01-20T09:56:57.069Z,44.77
2019-01-20T09:59:27.393Z,43.60
2019-01-20T10:01:57.715Z,48.63
2019-01-20T10:04:28.082Z,45.50
2019-01-20T10:06:58.303Z,42.85
2019-01-20T10:09:28.519Z,44.97
2019-01-20T10:11:58.846Z,45.30
2019-01-20T10:14:29.071Z,42.57
2019-01-20T10:16:59.421Z,44.40
2019-01-20T10:19:29.780Z,45.17
2019-01-20T10:22:00.065Z,41.70
2019-01-20T10:24:30.323Z,43.40
2019-01-20T10:27:00.672Z,45.30
2019-01-20T10:29:31.007Z,39.83
2019-01-20T10:32:01.527Z,42.27
2019-01-20T10:34:32.625Z,40.93
2019-01-20T10:37:04.036Z,43.57
2019-01-20T10:39:34.349Z,43.97
2019-01-20T10:42:04.739Z,38.00
2019-01-20T10:44:34.944Z,39.27
2019-01-20T10:47:05.434Z,41.43
2019-01-20T10:49:35.851Z,45.37
2019-01-20T10:52:06.444Z,46.88
2019-01-20T10:54:36.757Z,45.37
2019-01-20T10:57:07.082Z,48.90
2019-01-20T10:59:37.400Z,45.17
2019-01-20T11:02:07.684Z,46.02
2019-01-20T11:04:37.897Z,46.77
2019-01-20T11:07:08.278Z,46.93
2019-01-20T11:09:38.493Z,49.00
2019-01-20T11:12:08.976Z,48.33
2019-01-20T11:14:39.323Z,47.90
2019-01-20T11:17:09.845Z,48.35
2019-01-20T11:19:40.162Z,51.90
2019-01-20T11:22:10.561Z,47.37
2019-01-20T11:24:40.855Z,50.90
2019-01-20T11:27:11.432Z,48.20
2019-01-20T11:29:42.015Z,45.57
2019-01-20T11:32:12.305Z,52.73
2019-01-20T11:34:42.797Z,47.77
2019-01-20T11:37:13.060Z,51.53
2019-01-20T11:39:43.515Z,50.30
2019-01-20T11:42:13.911Z,50.80
2019-01-20T11:44:44.183Z,47.93
2019-01-20T11:47:14.419Z,51.47
2019-01-20T11:49:44.674Z,49.97
2019-01-20T11:52:14.934Z,53.03
2019-01-20T11:54:45.159Z,53.67
2019-01-20T11:57:15.480Z,46.20
2019-01-20T11:59:45.661Z,49.43
2019-01-20T12:02:22.355Z,52.17
2019-01-20T12:04:49.180Z,55.33
2019-01-20T12:07:19.412Z,47.80
2019-01-20T12:09:49.660Z,47.60
2019-01-20T12:12:19.868Z,50.43
2019-01-20T12:14:50.201Z,52.57
2019-01-20T12:17:20.487Z,49.83
2019-01-20T12:19:50.832Z,51.60
2019-01-20T12:22:21.067Z,46.23
2019-01-20T12:24:51.367Z,49.50
2019-01-20T12:27:21.859Z,49.17
2019-01-20T12:29:52.202Z,47.80
2019-01-20T12:32:22.511Z,47.97
2019-01-20T12:34:52.863Z,50.78
2019-01-20T12:37:23.193Z,48.63
2019-01-20T12:39:53.447Z,47.73
2019-01-20T12:42:23.835Z,48.43
2019-01-20T12:44:54.123Z,48.42
2019-01-20T12:47:24.461Z,47.70
2019-01-20T12:49:54.756Z,51.10
2019-01-20T12:52:25.013Z,50.30
2019-01-20T12:54:55.225Z,49.30
2019-01-20T12:57:25.552Z,52.20
2019-01-20T12:59:55.861Z,48.45
2019-01-20T13:02:26.139Z,52.33
2019-01-20T13:04:56.552Z,51.03
2019-01-20T13:07:26.901Z,46.10
2019-01-20T13:09:57.144Z,42.77
2019-01-20T13:12:27.734Z,48.87
2019-01-20T13:14:57.991Z,45.08
2019-01-20T13:17:28.269Z,48.00
2019-01-20T13:19:58.770Z,47.48
2019-01-20T13:22:29.322Z,46.63
2019-01-20T13:24:59.594Z,48.02
2019-01-20T13:27:29.924Z,48.70
2019-01-20T13:30:00.230Z,48.63
2019-01-20T13:32:30.462Z,43.47
2019-01-20T13:35:00.986Z,43.87
2019-01-20T13:37:31.237Z,42.40
2019-01-20T13:40:01.527Z,40.98
2019-01-20T13:42:32.263Z,45.17
2019-01-20T13:45:02.539Z,41.93
2019-01-20T13:47:32.770Z,42.43
2019-01-20T13:50:03.275Z,41.67
2019-01-20T13:52:33.628Z,38.20
2019-01-20T13:55:03.925Z,40.03
2019-01-20T13:57:34.228Z,42.07
2019-01-20T14:00:06.155Z,40.17
2019-01-20T14:02:36.432Z,38.35
2019-01-20T14:05:07.548Z,38.47
2019-01-20T14:07:37.847Z,37.50
2019-01-20T14:10:10.674Z,38.97
2019-01-20T14:12:41.032Z,36.47
2019-01-20T14:15:13.069Z,40.00
2019-01-20T14:17:43.557Z,36.93
2019-01-20T14:20:18.149Z,38.83
2019-01-20T14:22:48.453Z,35.80
2019-01-20T14:25:21.663Z,34.70
2019-01-20T14:27:52.963Z,34.98
2019-01-20T14:30:26.456Z,35.23
2019-01-20T14:32:56.787Z,33.70
2019-01-20T14:35:27.086Z,36.63
2019-01-20T14:37:57.278Z,32.63
2019-01-20T14:40:27.562Z,34.87
2019-01-20T14:42:57.862Z,34.33
2019-01-20T14:45:28.130Z,35.17
2019-01-20T14:47:58.446Z,33.63
2019-01-20T14:50:28.720Z,38.73
2019-01-20T14:52:58.974Z,37.13
2019-01-20T14:55:29.339Z,41.13
2019-01-20T14:57:59.579Z,39.40
2019-01-20T15:00:35.736Z,38.43
2019-01-20T15:03:07.379Z,36.90
2019-01-20T15:05:37.772Z,38.33
2019-01-20T15:08:09.410Z,49.10
2019-01-20T15:10:39.808Z,52.43
2019-01-20T15:13:10.072Z,46.92
2019-01-20T15:15:42.101Z,44.07
2019-01-20T15:18:12.519Z,40.90
2019-01-20T15:20:43.176Z,43.33
2019-01-20T15:23:13.438Z,42.73
2019-01-20T15:25:44.042Z,45.93
2019-01-20T15:28:14.325Z,41.17
2019-01-20T15:30:44.668Z,45.63
2019-01-20T15:33:15.130Z,43.20
2019-01-20T15:35:45.367Z,47.87
2019-01-20T15:38:15.624Z,44.57
2019-01-20T15:40:45.926Z,46.53
2019-01-20T15:43:16.222Z,60.00
2019-01-20T15:45:46.489Z,77.00
2019-01-20T15:48:16.779Z,52.87
2019-01-20T15:50:47.092Z,58.15
2019-01-20T15:53:17.366Z,52.30
2019-01-20T15:55:47.645Z,49.00
2019-01-20T15:58:18.221Z,48.67
2019-01-20T16:00:48.598Z,48.50
2019-01-20T16:03:18.862Z,46.70
2019-01-20T16:05:50.046Z,48.00
2019-01-20T16:08:20.368Z,46.08
2019-01-20T16:10:50.615Z,46.27
2019-01-20T16:13:20.890Z,47.80
2019-01-20T16:15:51.160Z,56.20
2019-01-20T16:18:21.464Z,53.20
2019-01-20T16:20:51.716Z,52.23
2019-01-20T16:23:21.953Z,53.60
2019-01-20T16:25:52.330Z,49.93
2019-01-20T16:28:22.560Z,51.47
2019-01-20T16:30:52.918Z,52.83
2019-01-20T16:33:24.932Z,49.27
2019-01-20T16:35:55.366Z,54.43
2019-01-20T16:38:25.626Z,46.60
2019-01-20T16:40:55.883Z,55.80
2019-01-20T16:43:26.208Z,53.07
2019-01-20T16:45:56.454Z,49.03
2019-01-20T16:48:27.899Z,51.92
2019-01-20T16:50:58.169Z,46.40
2019-01-20T16:53:28.460Z,50.70
2019-01-20T16:55:58.719Z,52.33
2019-01-20T16:58:29.308Z,49.23
2019-01-20T17:00:59.518Z,47.80
2019-01-20T17:03:29.856Z,55.97
2019-01-20T17:06:00.455Z,50.93
2019-01-20T17:08:30.721Z,59.37
2019-01-20T17:11:00.967Z,51.40
2019-01-20T17:13:31.235Z,53.33
2019-01-20T17:16:01.493Z,54.07
2019-01-20T17:18:31.747Z,51.83
2019-01-20T17:21:02.204Z,48.17
2019-01-20T17:23:32.489Z,46.70
2019-01-20T17:26:02.888Z,47.85
2019-01-20T17:28:33.201Z,60.38
2019-01-20T17:31:03.917Z,49.94
2019-01-20T17:33:34.134Z,56.37
2019-01-20T17:36:04.441Z,54.00
2019-01-20T17:38:34.725Z,53.90
2019-01-20T17:41:04.975Z,51.53
2019-01-20T17:43:35.306Z,52.03
2019-01-20T17:46:06.116Z,52.93
2019-01-20T17:48:36.391Z,54.10
2019-01-20T17:51:06.735Z,54.00
2019-01-20T17:53:37.063Z,56.23
2019-01-20T17:56:07.324Z,53.40
2019-01-20T17:58:37.638Z,55.17
2019-01-20T18:01:08.315Z,51.67
2019-01-20T18:03:38.683Z,56.68
2019-01-20T18:06:08.966Z,57.57
2019-01-20T18:08:39.348Z,52.67
2019-01-20T18:11:09.599Z,51.27
2019-01-20T18:13:39.934Z,48.50
2019-01-20T18:16:10.209Z,49.33
2019-01-20T18:18:40.497Z,48.50
2019-01-20T18:21:11.217Z,47.50
2019-01-20T18:23:41.469Z,49.50
2019-01-20T18:26:11.751Z,50.00
2019-01-20T18:28:42.100Z,48.97
2019-01-20T18:31:12.386Z,47.47
2019-01-20T18:33:42.641Z,49.10
2019-01-20T18:36:12.980Z,51.37
2019-01-20T18:38:43.509Z,51.27
2019-01-20T18:41:13.760Z,49.30
2019-01-20T18:43:44.112Z,47.73
2019-01-20T18:46:14.407Z,51.17
2019-01-20T18:48:44.695Z,51.47
2019-01-20T18:51:15.039Z,54.77
2019-01-20T18:53:45.613Z,53.77
2019-01-20T18:56:15.893Z,59.50
2019-01-20T18:58:46.195Z,58.50
2019-01-20T19:01:16.414Z,56.50
2019-01-20T19:03:46.720Z,60.53
2019-01-20T19:06:16.943Z,52.60
2019-01-20T19:08:47.329Z,61.53
2019-01-20T19:11:17.732Z,55.93
2019-01-20T19:13:48.263Z,58.60
2019-01-20T19:16:18.526Z,61.23
2019-01-20T19:18:48.857Z,59.77
2019-01-20T19:21:19.169Z,59.70
2019-01-20T19:23:49.599Z,56.83
2019-01-20T19:26:19.893Z,56.30
2019-01-20T19:28:50.171Z,60.20
2019-01-20T19:31:20.495Z,58.23
2019-01-20T19:33:51.201Z,66.10
2019-01-20T19:36:21.495Z,59.77
2019-01-20T19:38:51.744Z,70.70
2019-01-20T19:41:22.073Z,62.27
2019-01-20T19:43:52.715Z,65.17
2019-01-20T19:46:23.042Z,67.93
2019-01-20T19:48:53.303Z,64.27
2019-01-20T19:51:23.842Z,60.90
2019-01-20T19:53:54.327Z,64.33
2019-01-20T19:56:24.602Z,57.87
2019-01-20T19:58:54.892Z,70.10
2019-01-20T20:01:30.784Z,64.93
2019-01-20T20:03:57.254Z,67.23
2019-01-20T20:06:27.812Z,55.00
2019-01-20T20:08:58.179Z,57.47
2019-01-20T20:11:28.448Z,57.70
2019-01-20T20:13:58.706Z,58.23
2019-01-20T20:16:28.964Z,64.10
2019-01-20T20:18:59.284Z,69.97
2019-01-20T20:21:29.569Z,69.42
2019-01-20T20:23:59.885Z,61.60
2019-01-20T20:26:30.167Z,59.90
2019-01-20T20:29:00.831Z,52.63
2019-01-20T20:31:31.499Z,54.23
2019-01-20T20:34:02.690Z,53.00
2019-01-20T20:36:33.338Z,58.87
2019-01-20T20:39:03.683Z,61.40
2019-01-20T20:41:33.930Z,66.12
2019-01-20T20:44:04.369Z,74.53
2019-01-20T20:46:35.079Z,82.03
2019-01-20T20:49:05.752Z,90.07
2019-01-20T20:51:36.486Z,75.73
2019-01-20T20:54:06.732Z,72.40
2019-01-20T20:56:37.073Z,65.67
2019-01-20T20:59:07.557Z,67.27
2019-01-20T21:01:37.832Z,56.53
2019-01-20T21:04:08.102Z,60.43
2019-01-20T21:06:38.423Z,64.73
2019-01-20T21:09:10.514Z,64.07
2019-01-20T21:11:40.797Z,61.90
2019-01-20T21:14:11.103Z,57.33
2019-01-20T21:16:41.398Z,64.17
2019-01-20T21:19:11.673Z,66.67
2019-01-20T21:21:41.959Z,63.75
2019-01-20T21:24:12.225Z,67.60
2019-01-20T21:26:44.482Z,71.70
2019-01-20T21:29:14.721Z,71.50
2019-01-20T21:31:44.954Z,72.87
2019-01-20T21:34:15.434Z,68.20
2019-01-20T21:36:45.760Z,68.50
2019-01-20T21:39:15.975Z,64.50
2019-01-20T21:41:46.273Z,67.47
2019-01-20T21:44:16.469Z,64.50
2019-01-20T21:46:46.772Z,63.33
2019-01-20T21:49:16.969Z,59.50
2019-01-20T21:51:47.563Z,65.17
2019-01-20T21:54:17.891Z,64.03
2019-01-20T21:56:48.131Z,58.13
2019-01-20T21:59:18.501Z,66.13
2019-01-20T22:01:48.828Z,63.83
2019-01-20T22:04:19.185Z,56.87
2019-01-20T22:06:49.497Z,63.00
2019-01-20T22:09:19.728Z,58.42
2019-01-20T22:11:49.996Z,56.90
2019-01-20T22:14:20.296Z,65.37
2019-01-20T22:16:52.841Z,59.13
2019-01-20T22:19:22.556Z,60.90
2019-01-20T22:21:53.110Z,59.47
2019-01-20T22:24:23.386Z,57.73
2019-01-20T22:26:53.900Z,60.47
2019-01-20T22:29:24.094Z,61.08
2019-01-20T22:31:54.405Z,59.60
2019-01-20T22:34:24.704Z,52.73
2019-01-20T22:36:55.110Z,52.78
2019-01-20T22:39:25.367Z,50.87
2019-01-20T22:41:55.723Z,51.57
2019-01-20T22:44:26.016Z,54.05
2019-01-20T22:47:00.215Z,53.68
2019-01-20T22:49:28.486Z,46.70
2019-01-20T22:51:58.793Z,48.73
2019-01-20T22:54:29.065Z,54.90
2019-01-20T22:56:59.394Z,52.33
2019-01-20T22:59:29.647Z,52.67
2019-01-20T23:01:59.888Z,53.40
2019-01-20T23:04:30.186Z,55.43
2019-01-20T23:07:00.473Z,56.87
2019-01-20T23:09:30.696Z,59.17
2019-01-20T23:12:01.036Z,57.40
2019-01-20T23:14:31.328Z,53.27
2019-01-20T23:17:07.663Z,57.50
2019-01-20T23:19:33.921Z,59.43
2019-01-20T23:22:04.275Z,56.93
2019-01-20T23:24:34.527Z,59.13
2019-01-20T23:27:05.002Z,60.40
2019-01-20T23:29:35.345Z,56.20
2019-01-20T23:32:05.951Z,66.73
2019-01-20T23:34:36.276Z,63.17
2019-01-20T23:37:06.770Z,55.53
2019-01-20T23:39:36.943Z,56.90
2019-01-20T23:42:07.219Z,60.90
2019-01-20T23:44:37.560Z,63.67
2019-01-20T23:47:14.891Z,60.43
2019-01-20T23:49:39.842Z,59.73
2019-01-20T23:52:10.174Z,57.90
2019-01-20T23:54:40.477Z,59.13
2019-01-20T23:57:10.719Z,59.30
2019-01-20T23:59:42.240Z,57.30
